AirNav   Pilot Hours Calculator
 
 906 users online  

3FL7 Sacred Heart Hospital On the Emerald Coast Heliport
Destin, Florida, USA

GOING TO DESTIN?


FAA INFORMATION EFFECTIVE 30 JANUARY 2020

Location

FAA Identifier: 3FL7
Lat/Long: 30-22-44.6200N 086-18-19.1500W
30-22.743667N 086-18.319167W
30.3790611,-86.3053194
(estimated)
Elevation: 17 ft. / 5 m (estimated)
From city: 6 miles W of DESTIN, FL
Time zone: UTC -6 (UTC -5 during Daylight Saving Time)
Zip code: 32541

Heliport Operations

Heliport use: Private use. Permission required prior to landing
Activation date: 04/2004
Control tower: no
ARTCC: JACKSONVILLE CENTER
FSS: GAINESVILLE FLIGHT SERVICE STATION
Attendance: UNATNDD
Wind indicator: yes
Segmented circle: no
Lights: SS-SR

Heliport Communications

WX ASOS at DTS (9 nm W): PHONE 850-654-7128

Nearby radio navigation aids

VOR radial/distance  VOR name  Freq  Var
CEWr141/33.1CRESTVIEW VORTAC115.9003E

 
NDB name  Hdg/Dist  Freq  Var  ID
LYNNE281/27.327804WPFN .--. ..-. -.

Heliport Services

Runway Information

Helipad H1

Dimensions: 50 x 50 ft. / 15 x 15 m
Surface: concrete
Runway edge lights: PERI
Latitude: 30-22.743667N
Longitude: 086-18.319167W
Elevation: 17.0 ft.
Traffic pattern: leftleft

Heliport Ownership and Management from official FAA records

Ownership: Privately-owned
Owner: SACRED HEART HEALTH SYSTEMS
5151 NORTH NINTH AVENUE
PENSACOLA, FL 32504
Phone 850-416-3000
Manager: FACILITY MANAGER
7800 U.S. HIGHWAY 98 WEST
DESTIN, FL 32550-7228
Phone 850-278-3044

Heliport Operational Statistics

Aircraft based on the field: 1
Helicopters: 1
    

Additional Remarks

289 FT TWR 940 FT WSW OF HELIPAD.
ALL APCH/DEP OPNS ARE RSTRD FROM THE AREA WSW OF HELIPAD FROM 180 DEG CLKWS TO 270 DEG DUE TO 289 FT CELL TWR 940 FT WSW OF HELIPAD.
FOR CD CTC EGLIN APCH 850-882-9152 OR 850-882-9151.

Instrument Procedures

There are no published instrument procedures at 3FL7.

Some nearby airports with instrument procedures:

KDTS - Destin Executive Airport (9 nm W)
KVPS - Eglin Air Force Base/Destin-Fort Walton Beach Airport (13 nm NW)
KEGI - Duke Field (Eglin AF Aux Nr 3) Airport (20 nm NW)
KHRT - Hurlburt Field Airport (20 nm W)
54J - DeFuniak Springs Airport (23 nm N)
 
Loc | Ops | Rwys | IFR | FBO | Links
Com | Nav | Svcs | Stats | Notes

Continental Services
AirBoss

 
Area around 3FL7 (Sacred Heart Hospital On the Emerald Coast Heliport)
 
Road maps at: MapQuest Bing Google
 
Aerial photo
No photo
 
Sectional chart

 
Airport distance calculator
Flying to Sacred Heart Hospital On the Emerald Coast Heliport? Find the distance to fly.

From to 3FL7

Sunrise and sunset
Times for 16-Feb-2020
 Local
(UTC-6)
 Zulu
(UTC)
Morning civil twilight06:0112:01
Sunrise06:2612:26
Sunset17:3323:33
Evening civil twilight17:5823:58

Current date and time
Zulu (UTC)  17-Feb-2020 01:28:51
Local (UTC-6)  16-Feb-2020 19:28:51
 
METAR
KDTS 
8nm W 
170053Z 08005KT 10SM OVC033 16/14 A3002 RMK AO2 RAB14E30 SLP163 P0002 T01560144
KVPS 
12nm NW 
170118Z AUTO 01004KT 10SM FEW005 OVC029 15/15 A3001 RMK AO2 CIG 027 RWY01 CIG 028 RWY12 CIG 027 RWY30 SLP169 $
KEGI 
19nm NW 
170108Z AUTO 03004KT 10SM OVC003 14/14 A3002 RMK AO2 CIG 003V005 SLP167 $
KHRT 
19nm W 
170056Z AUTO 07005KT 10SM OVC028 16/14 A3000 RMK AO2 SLP161 P0001 T01570144 $
TAF
KVPS 
12nm NW 
162323Z 1623/1724 06008KT 9999 VCSH FEW004 SCT020 OVC035 QNH3000INS BECMG 1701/1702 05006KT 6000 BR -SHRA OVC004 QNH2995INS BECMG 1707/1708 04006KT 4800 BR OVC004 QNH2999INS BECMG 1716/1717 12006KT 8000 BR BKN004 BKN010 OVC018 QNH3000INS TX16/1718Z TN10/1712Z
NOTAMs
Click for the latest NOTAMs
NOTAMs are issued by the DoD/FAA and will open in a separate window not controlled by AirNav.

 

 
 

Would you like to see your business listed on this page?

 If your business provides an interesting product or service to pilots, flight crews, aircraft, or users of the Sacred Heart Hospital On the Emerald Coast Heliport, you should consider listing it here.  To start the listing process, click on the button below
 
Add a business
 

Other Pages about Sacred Heart Hospital On the Emerald Coast Heliport

Update a link
 
Copyright © AirNav, LLC. All rights reserved. Privacy Policy  Contact